sensor_id;sensor_type;location;lat;lon;timestamp;pressure;altitude;pressure_sealevel;temperature;humidity
19884;BME280;10104;50.732;10.174;2022-09-13T00:02:18;97573.75;;;14.58;82.31
19884;BME280;10104;50.732;10.174;2022-09-13T00:04:39;97575.16;;;14.36;83.99
19884;BME280;10104;50.732;10.174;2022-09-13T00:07:01;97563.59;;;14.48;82.24
19884;BME280;10104;50.732;10.174;2022-09-13T00:09:22;97545.88;;;14.36;83.84
19884;BME280;10104;50.732;10.174;2022-09-13T00:11:44;97537.28;;;14.34;83.56
19884;BME280;10104;50.732;10.174;2022-09-13T00:14:05;97537.44;;;14.39;83.22
19884;BME280;10104;50.732;10.174;2022-09-13T00:16:28;97542.78;;;14.39;82.95
19884;BME280;10104;50.732;10.174;2022-09-13T00:18:50;97538.06;;;14.41;82.88
19884;BME280;10104;50.732;10.174;2022-09-13T00:21:14;97532.88;;;14.46;82.20
19884;BME280;10104;50.732;10.174;2022-09-13T00:23:36;97538.88;;;14.60;81.96
19884;BME280;10104;50.732;10.174;2022-09-13T00:26:10;97535.03;;;14.55;81.81
19884;BME280;10104;50.732;10.174;2022-09-13T00:28:31;97537.91;;;14.54;83.47
19884;BME280;10104;50.732;10.174;2022-09-13T00:30:53;97529.25;;;14.40;84.42
19884;BME280;10104;50.732;10.174;2022-09-13T00:33:14;97522.56;;;14.31;84.05
19884;BME280;10104;50.732;10.174;2022-09-13T00:35:36;97528.44;;;14.40;82.91
19884;BME280;10104;50.732;10.174;2022-09-13T00:38:00;97523.50;;;14.43;82.36
19884;BME280;10104;50.732;10.174;2022-09-13T00:40:22;97522.22;;;14.46;82.17
19884;BME280;10104;50.732;10.174;2022-09-13T00:42:43;97524.13;;;14.57;82.36
19884;BME280;10104;50.732;10.174;2022-09-13T00:47:40;97526.97;;;14.44;83.98
19884;BME280;10104;50.732;10.174;2022-09-13T00:55:21;97510.75;;;14.45;83.04
19884;BME280;10104;50.732;10.174;2022-09-13T00:57:46;97503.28;;;14.54;82.28
19884;BME280;10104;50.732;10.174;2022-09-13T01:00:10;97475.53;;;14.62;81.83
19884;BME280;10104;50.732;10.174;2022-09-13T01:02:34;97469.50;;;14.30;85.40
19884;BME280;10104;50.732;10.174;2022-09-13T01:04:55;97482.28;;;14.21;84.26
19884;BME280;10104;50.732;10.174;2022-09-13T01:07:17;97489.41;;;14.27;83.26
19884;BME280;10104;50.732;10.174;2022-09-13T01:09:43;97497.94;;;14.36;82.20
19884;BME280;10104;50.732;10.174;2022-09-13T01:12:18;97489.81;;;14.49;81.89
19884;BME280;10104;50.732;10.174;2022-09-13T01:14:44;97479.59;;;14.46;81.87
19884;BME280;10104;50.732;10.174;2022-09-13T01:17:07;97483.00;;;14.53;82.41
19884;BME280;10104;50.732;10.174;2022-09-13T01:19:29;97478.31;;;14.30;84.55
19884;BME280;10104;50.732;10.174;2022-09-13T01:30:18;97486.53;;;14.29;84.88
19884;BME280;10104;50.732;10.174;2022-09-13T01:38:41;97455.06;;;14.44;83.59
19884;BME280;10104;50.732;10.174;2022-09-13T01:41:40;97453.00;;;14.21;87.42
19884;BME280;10104;50.732;10.174;2022-09-13T01:47:26;97431.19;;;14.31;85.41
19884;BME280;10104;50.732;10.174;2022-09-13T01:50:05;97436.00;;;14.22;85.18
19884;BME280;10104;50.732;10.174;2022-09-13T01:52:55;97443.78;;;14.24;85.06
19884;BME280;10104;50.732;10.174;2022-09-13T01:55:24;97440.81;;;14.32;83.78
19884;BME280;10104;50.732;10.174;2022-09-13T01:57:54;97441.94;;;14.42;83.22
19884;BME280;10104;50.732;10.174;2022-09-13T02:00:20;97443.56;;;14.43;83.02
19884;BME280;10104;50.732;10.174;2022-09-13T02:03:09;97437.28;;;14.38;82.94
19884;BME280;10104;50.732;10.174;2022-09-13T02:08:07;97436.66;;;14.36;85.45
19884;BME280;10104;50.732;10.174;2022-09-13T02:10:43;97437.03;;;14.21;85.75
19884;BME280;10104;50.732;10.174;2022-09-13T02:13:11;97436.13;;;14.27;84.52
19884;BME280;10104;50.732;10.174;2022-09-13T02:15:38;97430.94;;;14.32;83.74
19884;BME280;10104;50.732;10.174;2022-09-13T02:18:09;97443.69;;;14.30;83.34
19884;BME280;10104;50.732;10.174;2022-09-13T02:20:35;97446.72;;;14.34;83.53
19884;BME280;10104;50.732;10.174;2022-09-13T02:23:02;97442.28;;;14.46;83.39
19884;BME280;10104;50.732;10.174;2022-09-13T02:25:25;97453.97;;;14.45;84.10
19884;BME280;10104;50.732;10.174;2022-09-13T02:27:52;97461.97;;;14.45;84.03
19884;BME280;10104;50.732;10.174;2022-09-13T02:30:18;97436.22;;;14.39;85.37
19884;BME280;10104;50.732;10.174;2022-09-13T02:32:46;97436.22;;;14.39;84.91
19884;BME280;10104;50.732;10.174;2022-09-13T02:35:15;97450.19;;;14.34;85.42
19884;BME280;10104;50.732;10.174;2022-09-13T02:37:39;97452.84;;;14.34;84.52
19884;BME280;10104;50.732;10.174;2022-09-13T02:40:15;97453.84;;;14.40;83.56
19884;BME280;10104;50.732;10.174;2022-09-13T02:42:50;97453.84;;;14.40;83.29
19884;BME280;10104;50.732;10.174;2022-09-13T02:45:13;97449.13;;;14.42;83.29
19884;BME280;10104;50.732;10.174;2022-09-13T02:47:53;97444.94;;;14.28;85.79
19884;BME280;10104;50.732;10.174;2022-09-13T02:50:40;97434.75;;;14.25;85.87
19884;BME280;10104;50.732;10.174;2022-09-13T02:58:37;97428.91;;;14.16;86.16
19884;BME280;10104;50.732;10.174;2022-09-13T03:01:03;97423.56;;;14.16;86.28
19884;BME280;10104;50.732;10.174;2022-09-13T03:03:24;97430.88;;;14.21;85.87
19884;BME280;10104;50.732;10.174;2022-09-13T03:05:46;97428.28;;;14.14;86.92
19884;BME280;10104;50.732;10.174;2022-09-13T03:08:10;97410.84;;;14.18;86.80
19884;BME280;10104;50.732;10.174;2022-09-13T03:10:58;97412.84;;;14.04;88.60
19884;BME280;10104;50.732;10.174;2022-09-13T03:16:36;97421.19;;;14.08;87.74
19884;BME280;10104;50.732;10.174;2022-09-13T03:21:43;97431.47;;;14.23;86.79
19884;BME280;10104;50.732;10.174;2022-09-13T03:24:22;97438.78;;;14.27;86.25
19884;BME280;10104;50.732;10.174;2022-09-13T03:26:55;97438.72;;;14.34;86.02
19884;BME280;10104;50.732;10.174;2022-09-13T03:32:00;97421.06;;;14.39;85.92
19884;BME280;10104;50.732;10.174;2022-09-13T03:37:26;97446.94;;;14.32;86.94
19884;BME280;10104;50.732;10.174;2022-09-13T03:39:59;97441.81;;;14.37;85.94
19884;BME280;10104;50.732;10.174;2022-09-13T03:42:30;97435.41;;;14.38;85.21
19884;BME280;10104;50.732;10.174;2022-09-13T03:44:55;97437.28;;;14.38;85.06
19884;BME280;10104;50.732;10.174;2022-09-13T03:47:18;97435.41;;;14.38;84.87
19884;BME280;10104;50.732;10.174;2022-09-13T03:49:41;97443.47;;;14.32;85.03
19884;BME280;10104;50.732;10.174;2022-09-13T03:52:03;97444.47;;;14.37;84.50
19884;BME280;10104;50.732;10.174;2022-09-13T03:54:28;97444.81;;;14.41;84.56
19884;BME280;10104;50.732;10.174;2022-09-13T03:57:18;97430.25;;;14.43;83.95
19884;BME280;10104;50.732;10.174;2022-09-13T03:59:52;97433.19;;;14.35;86.00
19884;BME280;10104;50.732;10.174;2022-09-13T04:02:15;97449.03;;;14.30;86.11
19884;BME280;10104;50.732;10.174;2022-09-13T04:04:41;97452.50;;;14.31;85.56
19884;BME280;10104;50.732;10.174;2022-09-13T04:07:03;97443.25;;;14.33;85.07
19884;BME280;10104;50.732;10.174;2022-09-13T04:09:24;97445.28;;;14.38;84.87
19884;BME280;10104;50.732;10.174;2022-09-13T04:11:46;97445.69;;;14.35;85.04
19884;BME280;10104;50.732;10.174;2022-09-13T04:14:07;97452.66;;;14.17;88.05
19884;BME280;10104;50.732;10.174;2022-09-13T04:16:28;97445.47;;;14.18;86.38
19884;BME280;10104;50.732;10.174;2022-09-13T04:18:50;97451.69;;;14.30;85.50
19884;BME280;10104;50.732;10.174;2022-09-13T04:21:11;97449.16;;;14.35;85.47
19884;BME280;10104;50.732;10.174;2022-09-13T04:23:33;97442.38;;;14.39;85.25
19884;BME280;10104;50.732;10.174;2022-09-13T04:25:54;97430.69;;;14.40;85.24
19884;BME280;10104;50.732;10.174;2022-09-13T04:28:21;97425.50;;;14.45;85.11
19884;BME280;10104;50.732;10.174;2022-09-13T04:30:44;97428.28;;;14.50;85.29
19884;BME280;10104;50.732;10.174;2022-09-13T04:33:06;97416.84;;;14.32;87.96
19884;BME280;10104;50.732;10.174;2022-09-13T04:35:27;97414.91;;;14.39;86.41
19884;BME280;10104;50.732;10.174;2022-09-13T04:37:49;97416.16;;;14.36;87.19
19884;BME280;10104;50.732;10.174;2022-09-13T04:40:11;97414.75;;;14.34;86.68
19884;BME280;10104;50.732;10.174;2022-09-13T04:42:32;97419.00;;;14.23;87.51
19884;BME280;10104;50.732;10.174;2022-09-13T04:44:54;97414.53;;;14.35;86.51
19884;BME280;10104;50.732;10.174;2022-09-13T04:47:16;97413.47;;;14.43;85.85
19884;BME280;10104;50.732;10.174;2022-09-13T04:49:37;97410.03;;;14.36;86.98
19884;BME280;10104;50.732;10.174;2022-09-13T04:51:59;97412.50;;;14.37;86.68
19884;BME280;10104;50.732;10.174;2022-09-13T04:54:20;97419.72;;;14.30;87.58
19884;BME280;10104;50.732;10.174;2022-09-13T04:56:43;97424.13;;;14.43;86.49
19884;BME280;10104;50.732;10.174;2022-09-13T04:59:05;97423.28;;;14.42;86.88
19884;BME280;10104;50.732;10.174;2022-09-13T05:01:28;97422.53;;;14.53;86.55
19884;BME280;10104;50.732;10.174;2022-09-13T05:03:50;97423.69;;;14.57;86.39
19884;BME280;10104;50.732;10.174;2022-09-13T05:06:15;97434.66;;;14.68;86.23
19884;BME280;10104;50.732;10.174;2022-09-13T05:08:39;97430.72;;;14.70;87.22
19884;BME280;10104;50.732;10.174;2022-09-13T05:11:01;97432.13;;;14.73;87.88
19884;BME280;10104;50.732;10.174;2022-09-13T05:13:26;97432.59;;;14.81;86.79
19884;BME280;10104;50.732;10.174;2022-09-13T05:15:48;97432.16;;;14.84;87.54
19884;BME280;10104;50.732;10.174;2022-09-13T05:18:09;97429.28;;;14.86;87.21
19884;BME280;10104;50.732;10.174;2022-09-13T05:20:31;97434.97;;;14.89;87.04
19884;BME280;10104;50.732;10.174;2022-09-13T05:22:54;97432.22;;;14.96;86.76
19884;BME280;10104;50.732;10.174;2022-09-13T05:25:15;97433.28;;;15.07;86.17
19884;BME280;10104;50.732;10.174;2022-09-13T05:27:37;97431.19;;;15.09;86.14
19884;BME280;10104;50.732;10.174;2022-09-13T05:29:58;97437.25;;;15.16;85.85
19884;BME280;10104;50.732;10.174;2022-09-13T05:32:20;97425.19;;;15.25;85.32
19884;BME280;10104;50.732;10.174;2022-09-13T05:34:41;97422.91;;;15.28;85.39
19884;BME280;10104;50.732;10.174;2022-09-13T05:37:03;97421.41;;;15.32;85.52
19884;BME280;10104;50.732;10.174;2022-09-13T05:39:24;97424.75;;;15.28;86.68
19884;BME280;10104;50.732;10.174;2022-09-13T05:41:59;97421.50;;;15.37;86.36
19884;BME280;10104;50.732;10.174;2022-09-13T05:44:21;97417.91;;;15.32;87.44
19884;BME280;10104;50.732;10.174;2022-09-13T05:46:46;97423.94;;;15.27;87.98
19884;BME280;10104;50.732;10.174;2022-09-13T05:49:07;97425.81;;;15.38;87.08
19884;BME280;10104;50.732;10.174;2022-09-13T05:51:29;97416.59;;;15.53;86.10
19884;BME280;10104;50.732;10.174;2022-09-13T05:53:52;97424.81;;;15.63;85.68
19884;BME280;10104;50.732;10.174;2022-09-13T05:56:17;97418.00;;;15.78;84.94
19884;BME280;10104;50.732;10.174;2022-09-13T05:58:40;97419.84;;;15.90;84.82
19884;BME280;10104;50.732;10.174;2022-09-13T06:01:02;97416.00;;;15.97;85.08
19884;BME280;10104;50.732;10.174;2022-09-13T06:03:24;97411.91;;;16.06;85.08
19884;BME280;10104;50.732;10.174;2022-09-13T06:05:45;97412.84;;;16.12;85.85
19884;BME280;10104;50.732;10.174;2022-09-13T06:08:07;97409.56;;;16.22;85.21
19884;BME280;10104;50.732;10.174;2022-09-13T06:10:28;97406.91;;;16.22;86.37
19884;BME280;10104;50.732;10.174;2022-09-13T06:12:50;97405.25;;;16.32;85.37
19884;BME280;10104;50.732;10.174;2022-09-13T06:15:12;97401.72;;;16.43;84.71
19884;BME280;10104;50.732;10.174;2022-09-13T06:17:34;97406.13;;;16.49;84.55
19884;BME280;10104;50.732;10.174;2022-09-13T06:19:55;97407.84;;;16.55;84.29
19884;BME280;10104;50.732;10.174;2022-09-13T06:22:17;97410.63;;;16.61;84.19
19884;BME280;10104;50.732;10.174;2022-09-13T06:24:38;97415.28;;;16.65;84.20
19884;BME280;10104;50.732;10.174;2022-09-13T06:27:00;97409.84;;;16.60;84.84
19884;BME280;10104;50.732;10.174;2022-09-13T06:29:21;97405.41;;;16.66;84.55
19884;BME280;10104;50.732;10.174;2022-09-13T06:31:43;97405.72;;;16.69;84.59
19884;BME280;10104;50.732;10.174;2022-09-13T06:34:05;97413.44;;;16.66;84.81
19884;BME280;10104;50.732;10.174;2022-09-13T06:36:28;97420.91;;;16.40;90.09
19884;BME280;10104;50.732;10.174;2022-09-13T06:38:50;97427.84;;;16.53;87.98
19884;BME280;10104;50.732;10.174;2022-09-13T06:41:14;97424.81;;;16.61;86.88
19884;BME280;10104;50.732;10.174;2022-09-13T06:43:36;97427.94;;;16.70;86.20
19884;BME280;10104;50.732;10.174;2022-09-13T06:46:03;97428.13;;;16.80;85.80
19884;BME280;10104;50.732;10.174;2022-09-13T06:48:30;97422.47;;;16.93;85.59
19884;BME280;10104;50.732;10.174;2022-09-13T06:50:51;97421.63;;;17.04;85.55
19884;BME280;10104;50.732;10.174;2022-09-13T06:53:13;97428.13;;;17.08;87.35
19884;BME280;10104;50.732;10.174;2022-09-13T06:55:34;97429.97;;;17.08;88.58
19884;BME280;10104;50.732;10.174;2022-09-13T06:57:57;97423.97;;;17.17;89.27
19884;BME280;10104;50.732;10.174;2022-09-13T07:00:19;97435.34;;;17.08;91.14
19884;BME280;10104;50.732;10.174;2022-09-13T07:02:40;97439.88;;;17.07;90.63
19884;BME280;10104;50.732;10.174;2022-09-13T07:05:02;97439.94;;;16.95;91.95
19884;BME280;10104;50.732;10.174;2022-09-13T07:07:23;97429.34;;;17.17;89.95
19884;BME280;10104;50.732;10.174;2022-09-13T07:09:45;97420.84;;;17.37;89.00
19884;BME280;10104;50.732;10.174;2022-09-13T07:12:06;97429.94;;;17.53;87.95
19884;BME280;10104;50.732;10.174;2022-09-13T07:14:28;97426.47;;;17.69;87.24
19884;BME280;10104;50.732;10.174;2022-09-13T07:16:50;97422.31;;;17.78;87.09
19884;BME280;10104;50.732;10.174;2022-09-13T07:19:20;97412.75;;;17.65;89.11
19884;BME280;10104;50.732;10.174;2022-09-13T07:21:43;97420.78;;;17.65;89.66
19884;BME280;10104;50.732;10.174;2022-09-13T07:24:05;97420.38;;;17.73;89.11
19884;BME280;10104;50.732;10.174;2022-09-13T07:26:27;97419.91;;;17.76;88.73
19884;BME280;10104;50.732;10.174;2022-09-13T07:28:51;97423.28;;;17.72;88.60
19884;BME280;10104;50.732;10.174;2022-09-13T07:31:15;97422.34;;;17.61;89.21
19884;BME280;10104;50.732;10.174;2022-09-13T07:33:39;97423.13;;;17.78;88.62
19884;BME280;10104;50.732;10.174;2022-09-13T07:36:01;97423.50;;;18.04;87.52
19884;BME280;10104;50.732;10.174;2022-09-13T07:38:26;97410.31;;;18.19;86.40
19884;BME280;10104;50.732;10.174;2022-09-13T07:40:55;97408.56;;;18.30;85.27
19884;BME280;10104;50.732;10.174;2022-09-13T07:43:18;97405.59;;;18.26;84.66
19884;BME280;10104;50.732;10.174;2022-09-13T07:45:39;97422.31;;;18.16;85.42
19884;BME280;10104;50.732;10.174;2022-09-13T07:48:01;97430.72;;;18.03;87.50
19884;BME280;10104;50.732;10.174;2022-09-13T07:50:22;97438.66;;;18.15;86.89
19884;BME280;10104;50.732;10.174;2022-09-13T07:52:44;97443.28;;;18.19;87.94
19884;BME280;10104;50.732;10.174;2022-09-13T07:55:05;97443.88;;;18.43;85.44
19884;BME280;10104;50.732;10.174;2022-09-13T07:57:27;97441.91;;;18.55;85.02
19884;BME280;10104;50.732;10.174;2022-09-13T07:59:48;97436.22;;;18.74;85.41
19884;BME280;10104;50.732;10.174;2022-09-13T08:02:10;97434.06;;;18.97;84.60
19884;BME280;10104;50.732;10.174;2022-09-13T08:04:31;97429.44;;;19.20;84.83
19884;BME280;10104;50.732;10.174;2022-09-13T08:06:56;97420.25;;;19.43;82.77
19884;BME280;10104;50.732;10.174;2022-09-13T08:09:18;97434.72;;;19.36;82.44
19884;BME280;10104;50.732;10.174;2022-09-13T08:11:42;97421.72;;;19.55;80.70
19884;BME280;10104;50.732;10.174;2022-09-13T08:14:06;97421.00;;;19.65;80.88
19884;BME280;10104;50.732;10.174;2022-09-13T08:16:29;97429.56;;;19.62;81.32
19884;BME280;10104;50.732;10.174;2022-09-13T08:18:54;97426.66;;;19.68;82.88
19884;BME280;10104;50.732;10.174;2022-09-13T08:21:17;97426.19;;;19.82;82.10
19884;BME280;10104;50.732;10.174;2022-09-13T08:23:39;97435.91;;;19.88;83.14
19884;BME280;10104;50.732;10.174;2022-09-13T08:26:02;97441.34;;;19.93;82.76
19884;BME280;10104;50.732;10.174;2022-09-13T08:28:23;97439.69;;;19.87;81.54
19884;BME280;10104;50.732;10.174;2022-09-13T08:30:48;97430.69;;;20.08;83.04
19884;BME280;10104;50.732;10.174;2022-09-13T08:33:10;97438.84;;;20.23;81.19
19884;BME280;10104;50.732;10.174;2022-09-13T08:35:32;97437.59;;;20.36;81.54
19884;BME280;10104;50.732;10.174;2022-09-13T08:37:53;97445.50;;;20.63;80.72
19884;BME280;10104;50.732;10.174;2022-09-13T08:40:15;97437.81;;;20.91;79.75
19884;BME280;10104;50.732;10.174;2022-09-13T08:42:57;97432.78;;;21.20;77.12
19884;BME280;10104;50.732;10.174;2022-09-13T08:45:22;97425.78;;;21.55;75.02
19884;BME280;10104;50.732;10.174;2022-09-13T08:47:53;97427.94;;;21.78;74.46
19884;BME280;10104;50.732;10.174;2022-09-13T08:50:18;97420.63;;;22.04;72.59
19884;BME280;10104;50.732;10.174;2022-09-13T08:52:50;97410.09;;;22.28;72.02
19884;BME280;10104;50.732;10.174;2022-09-13T08:55:24;97408.75;;;22.20;68.98
19884;BME280;10104;50.732;10.174;2022-09-13T08:58:05;97409.00;;;22.24;69.41
19884;BME280;10104;50.732;10.174;2022-09-13T09:00:38;97401.19;;;22.17;71.88
19884;BME280;10104;50.732;10.174;2022-09-13T09:03:20;97395.00;;;22.11;70.66
19884;BME280;10104;50.732;10.174;2022-09-13T09:05:48;97390.72;;;21.90;71.26
19884;BME280;10104;50.732;10.174;2022-09-13T09:08:14;97398.56;;;21.82;70.98
19884;BME280;10104;50.732;10.174;2022-09-13T09:10:44;97400.41;;;21.91;69.85
19884;BME280;10104;50.732;10.174;2022-09-13T09:13:25;97400.97;;;22.08;69.23
19884;BME280;10104;50.732;10.174;2022-09-13T09:15:51;97402.78;;;22.23;68.00
19884;BME280;10104;50.732;10.174;2022-09-13T09:18:26;97399.34;;;22.72;68.02
19884;BME280;10104;50.732;10.174;2022-09-13T09:20:51;97409.78;;;22.98;68.25
19884;BME280;10104;50.732;10.174;2022-09-13T09:23:18;97403.31;;;22.94;66.45
19884;BME280;10104;50.732;10.174;2022-09-13T09:25:42;97413.78;;;23.06;65.52
19884;BME280;10104;50.732;10.174;2022-09-13T09:28:11;97403.72;;;23.17;65.92
19884;BME280;10104;50.732;10.174;2022-09-13T09:30:42;97405.34;;;23.52;64.81
19884;BME280;10104;50.732;10.174;2022-09-13T09:33:17;97409.28;;;23.69;63.38
19884;BME280;10104;50.732;10.174;2022-09-13T09:40:44;97402.25;;;23.68;61.37
19884;BME280;10104;50.732;10.174;2022-09-13T09:43:18;97405.34;;;23.86;60.50
19884;BME280;10104;50.732;10.174;2022-09-13T09:45:40;97403.56;;;23.76;61.66
19884;BME280;10104;50.732;10.174;2022-09-13T09:48:13;97404.53;;;23.56;62.77
19884;BME280;10104;50.732;10.174;2022-09-13T09:50:40;97392.09;;;23.55;63.33
19884;BME280;10104;50.732;10.174;2022-09-13T09:53:28;97390.81;;;23.76;62.16
19884;BME280;10104;50.732;10.174;2022-09-13T09:58:39;97382.31;;;23.25;63.60
19884;BME280;10104;50.732;10.174;2022-09-13T10:01:02;97380.91;;;23.33;63.13
19884;BME280;10104;50.732;10.174;2022-09-13T10:03:32;97385.63;;;23.46;60.92
19884;BME280;10104;50.732;10.174;2022-09-13T10:06:04;97374.88;;;23.41;63.53
19884;BME280;10104;50.732;10.174;2022-09-13T10:08:30;97382.13;;;23.51;64.02
19884;BME280;10104;50.732;10.174;2022-09-13T10:10:54;97376.47;;;23.47;62.00
19884;BME280;10104;50.732;10.174;2022-09-13T10:13:19;97376.16;;;23.54;62.94
19884;BME280;10104;50.732;10.174;2022-09-13T10:16:04;97368.16;;;23.96;62.40
19884;BME280;10104;50.732;10.174;2022-09-13T10:18:28;97360.72;;;23.83;64.17
19884;BME280;10104;50.732;10.174;2022-09-13T10:23:39;97355.16;;;23.98;63.34
19884;BME280;10104;50.732;10.174;2022-09-13T10:26:10;97349.50;;;23.95;63.12
19884;BME280;10104;50.732;10.174;2022-09-13T10:28:35;97361.13;;;24.24;61.93
19884;BME280;10104;50.732;10.174;2022-09-13T10:31:10;97361.59;;;24.02;60.28
19884;BME280;10104;50.732;10.174;2022-09-13T10:33:40;97354.03;;;24.04;62.50
19884;BME280;10104;50.732;10.174;2022-09-13T10:36:20;97348.91;;;24.27;62.18
19884;BME280;10104;50.732;10.174;2022-09-13T10:39:07;97340.38;;;24.57;62.14
19884;BME280;10104;50.732;10.174;2022-09-13T10:41:36;97338.50;;;24.76;60.37
19884;BME280;10104;50.732;10.174;2022-09-13T10:44:03;97340.44;;;24.94;58.66
19884;BME280;10104;50.732;10.174;2022-09-13T10:46:31;97339.66;;;25.26;59.25
19884;BME280;10104;50.732;10.174;2022-09-13T10:48:54;97340.94;;;25.48;57.69
19884;BME280;10104;50.732;10.174;2022-09-13T10:51:36;97349.75;;;25.39;57.74
19884;BME280;10104;50.732;10.174;2022-09-13T10:54:19;97346.94;;;25.63;57.13
19884;BME280;10104;50.732;10.174;2022-09-13T10:56:41;97346.66;;;25.78;57.19
19884;BME280;10104;50.732;10.174;2022-09-13T10:59:23;97335.72;;;26.11;55.92
19884;BME280;10104;50.732;10.174;2022-09-13T11:04:49;97332.28;;;26.05;54.16
19884;BME280;10104;50.732;10.174;2022-09-13T11:07:36;97328.19;;;26.22;53.13
19884;BME280;10104;50.732;10.174;2022-09-13T11:10:28;97327.72;;;26.33;51.33
19884;BME280;10104;50.732;10.174;2022-09-13T11:13:04;97326.38;;;26.31;51.76
19884;BME280;10104;50.732;10.174;2022-09-13T11:15:52;97339.72;;;26.54;52.23
19884;BME280;10104;50.732;10.174;2022-09-13T11:32:06;97315.63;;;26.89;46.35
19884;BME280;10104;50.732;10.174;2022-09-13T11:34:31;97311.88;;;27.21;46.05
19884;BME280;10104;50.732;10.174;2022-09-13T11:37:25;97315.94;;;27.85;45.70
19884;BME280;10104;50.732;10.174;2022-09-13T11:40:28;97316.50;;;28.04;45.12
19884;BME280;10104;50.732;10.174;2022-09-13T11:54:01;97324.00;;;27.99;40.75
19884;BME280;10104;50.732;10.174;2022-09-13T11:59:00;97318.00;;;27.80;41.17
19884;BME280;10104;50.732;10.174;2022-09-13T12:01:40;97311.09;;;27.73;40.18
19884;BME280;10104;50.732;10.174;2022-09-13T12:04:14;97315.19;;;27.62;42.14
19884;BME280;10104;50.732;10.174;2022-09-13T12:06:39;97316.06;;;27.49;40.43
19884;BME280;10104;50.732;10.174;2022-09-13T12:09:42;97307.31;;;27.52;41.16
19884;BME280;10104;50.732;10.174;2022-09-13T12:12:02;97318.31;;;27.25;42.48
19884;BME280;10104;50.732;10.174;2022-09-13T12:14:44;97319.53;;;26.96;42.91
19884;BME280;10104;50.732;10.174;2022-09-13T12:17:24;97324.78;;;26.93;42.45
19884;BME280;10104;50.732;10.174;2022-09-13T12:19:49;97317.50;;;27.02;42.07
19884;BME280;10104;50.732;10.174;2022-09-13T12:22:12;97323.34;;;26.60;42.83
19884;BME280;10104;50.732;10.174;2022-09-13T12:25:05;97316.88;;;26.69;43.96
19884;BME280;10104;50.732;10.174;2022-09-13T12:27:42;97307.84;;;26.60;44.99
19884;BME280;10104;50.732;10.174;2022-09-13T12:30:14;97308.59;;;26.74;43.51
19884;BME280;10104;50.732;10.174;2022-09-13T12:32:37;97307.75;;;26.87;44.36
19884;BME280;10104;50.732;10.174;2022-09-13T12:35:06;97292.94;;;26.71;44.14
19884;BME280;10104;50.732;10.174;2022-09-13T12:37:55;97294.78;;;27.20;43.09
19884;BME280;10104;50.732;10.174;2022-09-13T12:40:36;97282.50;;;27.54;42.64
19884;BME280;10104;50.732;10.174;2022-09-13T12:46:23;97278.69;;;28.51;39.76
19884;BME280;10104;50.732;10.174;2022-09-13T13:02:33;97254.19;;;32.99;33.10
19884;BME280;10104;50.732;10.174;2022-09-13T13:05:06;97250.50;;;32.79;33.46
19884;BME280;10104;50.732;10.174;2022-09-13T13:07:38;97244.63;;;32.29;32.78
19884;BME280;10104;50.732;10.174;2022-09-13T13:10:02;97244.84;;;33.16;32.20
19884;BME280;10104;50.732;10.174;2022-09-13T13:12:37;97233.84;;;33.59;31.86
19884;BME280;10104;50.732;10.174;2022-09-13T13:15:01;97237.91;;;32.26;33.61
19884;BME280;10104;50.732;10.174;2022-09-13T13:23:20;97229.72;;;30.17;35.95
19884;BME280;10104;50.732;10.174;2022-09-13T13:31:04;97218.72;;;29.11;36.43
19884;BME280;10104;50.732;10.174;2022-09-13T13:33:27;97209.75;;;28.93;35.98
19884;BME280;10104;50.732;10.174;2022-09-13T13:35:49;97206.50;;;29.17;36.96
19884;BME280;10104;50.732;10.174;2022-09-13T13:38:41;97207.53;;;28.87;36.40
19884;BME280;10104;50.732;10.174;2022-09-13T13:43:53;97194.72;;;28.44;38.82
19884;BME280;10104;50.732;10.174;2022-09-13T13:48:42;97175.88;;;27.91;38.17
19884;BME280;10104;50.732;10.174;2022-09-13T13:53:39;97175.50;;;27.67;39.67
19884;BME280;10104;50.732;10.174;2022-09-13T13:56:21;97183.03;;;27.78;39.08
19884;BME280;10104;50.732;10.174;2022-09-13T13:58:49;97172.81;;;27.84;38.55
19884;BME280;10104;50.732;10.174;2022-09-13T14:01:20;97180.78;;;27.72;39.57
19884;BME280;10104;50.732;10.174;2022-09-13T14:07:01;97171.31;;;27.61;40.32
19884;BME280;10104;50.732;10.174;2022-09-13T14:09:54;97172.69;;;27.50;40.46
19884;BME280;10104;50.732;10.174;2022-09-13T14:12:40;97168.09;;;27.19;40.84
19884;BME280;10104;50.732;10.174;2022-09-13T14:15:20;97173.03;;;27.17;40.66
19884;BME280;10104;50.732;10.174;2022-09-13T14:18:00;97173.69;;;27.23;40.14
19884;BME280;10104;50.732;10.174;2022-09-13T14:20:26;97178.53;;;27.04;40.83
19884;BME280;10104;50.732;10.174;2022-09-13T14:22:47;97176.63;;;27.04;43.23
19884;BME280;10104;50.732;10.174;2022-09-13T14:25:23;97165.88;;;27.21;43.01
19884;BME280;10104;50.732;10.174;2022-09-13T14:27:46;97176.16;;;27.42;42.36
19884;BME280;10104;50.732;10.174;2022-09-13T14:32:41;97176.88;;;28.21;39.51
19884;BME280;10104;50.732;10.174;2022-09-13T14:35:17;97164.06;;;28.65;39.56
19884;BME280;10104;50.732;10.174;2022-09-13T14:37:41;97161.53;;;28.51;39.23
19884;BME280;10104;50.732;10.174;2022-09-13T14:40:18;97163.72;;;29.01;38.56
19884;BME280;10104;50.732;10.174;2022-09-13T14:42:45;97155.69;;;28.95;39.02
19884;BME280;10104;50.732;10.174;2022-09-13T14:45:15;97165.84;;;28.86;39.04
19884;BME280;10104;50.732;10.174;2022-09-13T14:47:46;97166.50;;;28.58;38.67
19884;BME280;10104;50.732;10.174;2022-09-13T14:50:15;97158.16;;;28.80;39.36
19884;BME280;10104;50.732;10.174;2022-09-13T14:52:47;97156.41;;;29.22;38.54
19884;BME280;10104;50.732;10.174;2022-09-13T14:55:13;97155.25;;;29.69;37.85
19884;BME280;10104;50.732;10.174;2022-09-13T14:57:39;97160.97;;;29.85;37.57
19884;BME280;10104;50.732;10.174;2022-09-13T15:00:13;97156.72;;;30.38;36.75